Time;durP1;ratioP1;P1;durP2;ratioP2;P2;SDS_P1;SDS_P2;PMS_P1;PMS_P2;Temp;Humidity;BMP_temperature;BMP_pressure;BME280_temperature;BME280_humidity;BME280_pressure;Samples;Min_cycle;Max_cycle;Signal;HPM_P1;HPM_P2
2021/12/21 00:00:48;;;;;;;;;;;26.40;2201.60;;;;;;4772369;30;20012;-53
2021/12/21 00:03:13;;;;;;;;;;;26.40;2201.60;;;;;;4788818;30;20000;-54
2021/12/21 00:05:39;;;;;;;;;;;26.40;2201.60;;;;;;4788488;30;19917;-53
2021/12/21 00:08:09;;;;;;;;;;;26.40;2201.60;;;;;;4788361;30;19909;-55
2021/12/21 00:10:35;;;;;;;;;;;26.40;2201.60;;;;;;4768455;30;19921;-57
2021/12/21 00:13:20;;;;;;;;;;;26.40;2201.60;;;;;;4761355;30;19914;-58
2021/12/21 00:21:02;;;;;;;;;;;26.40;2201.60;;;;;;4760207;30;19917;-57
2021/12/21 00:23:38;;;;;;;;;;;26.40;2201.60;;;;;;4760059;30;20299;-58
2021/12/21 00:26:08;;;;;;;;;;;26.40;2201.60;;;;;;4760734;30;19957;-58
2021/12/21 00:28:40;;;;;;;;;;;26.40;2201.60;;;;;;4762086;30;19920;-58
2021/12/21 00:31:06;;;;;;;;;;;26.40;2201.60;;;;;;4752439;30;19918;-55
2021/12/21 00:33:32;;;;;;;;;;;26.30;2201.60;;;;;;4752693;30;19910;-56
2021/12/21 00:35:58;;;;;;;;;;;26.30;2201.60;;;;;;4752816;30;20360;-55
2021/12/21 00:38:24;;;;;;;;;;;26.30;2201.60;;;;;;4752324;30;20001;-59
2021/12/21 00:40:49;;;;;;;;;;;26.30;2201.60;;;;;;4736654;30;20348;-55
2021/12/21 00:43:15;;;;;;;;;;;26.30;2201.60;;;;;;4752633;30;19949;-58
2021/12/21 00:45:41;;;;;;;;;;;26.30;2201.60;;;;;;4752455;30;19922;-55
2021/12/21 00:48:06;;;;;;;;;;;26.30;2201.60;;;;;;4752433;30;19933;-55
2021/12/21 00:50:32;;;;;;;;;;;26.20;2201.60;;;;;;4752729;30;20011;-55
2021/12/21 00:52:58;;;;;;;;;;;26.30;2201.60;;;;;;4752557;30;19917;-55
2021/12/21 00:55:24;;;;;;;;;;;26.30;2201.60;;;;;;4752572;30;19921;-54
2021/12/21 00:57:50;;;;;;;;;;;26.20;2201.60;;;;;;4752395;30;19959;-55
2021/12/21 01:00:17;;;;;;;;;;;26.20;2201.60;;;;;;4753598;30;19965;-54
2021/12/21 01:02:43;;;;;;;;;;;26.20;2201.60;;;;;;4755969;30;19910;-54
2021/12/21 01:05:18;;;;;;;;;;;26.20;2201.60;;;;;;4755939;30;19910;-54
2021/12/21 01:07:48;;;;;;;;;;;26.20;2201.60;;;;;;4755906;30;19922;-55
2021/12/21 01:18:04;;;;;;;;;;;26.20;2201.60;;;;;;4755852;30;19910;-54
2021/12/21 01:20:37;;;;;;;;;;;26.20;2201.60;;;;;;4755600;30;19956;-54
2021/12/21 01:23:35;;;;;;;;;;;26.20;2201.60;;;;;;4755336;30;19933;-55
2021/12/21 01:26:04;;;;;;;;;;;26.20;2201.60;;;;;;4755276;30;19968;-54
2021/12/21 01:31:33;;;;;;;;;;;26.20;2201.60;;;;;;4755251;30;19917;-55
2021/12/21 01:34:21;;;;;;;;;;;26.10;2201.60;;;;;;4755569;30;19910;-55
2021/12/21 01:37:15;;;;;;;;;;;26.20;2201.60;;;;;;4739595;30;19967;-55
2021/12/21 01:50:14;;;;;;;;;;;26.10;2201.60;;;;;;4755150;30;20386;-54
2021/12/21 01:52:39;;;;;;;;;;;26.10;2201.60;;;;;;4754815;30;19910;-54
2021/12/21 01:55:06;;;;;;;;;;;26.10;2201.60;;;;;;4755030;30;19989;-55
2021/12/21 01:57:31;;;;;;;;;;;26.10;2201.60;;;;;;4754806;30;20272;-58
2021/12/21 01:59:57;;;;;;;;;;;26.10;2201.60;;;;;;4755045;30;19910;-54
2021/12/21 02:02:23;;;;;;;;;;;26.10;2201.60;;;;;;4754932;30;19949;-54
2021/12/21 02:04:49;;;;;;;;;;;26.10;2201.60;;;;;;4754952;30;19910;-54
2021/12/21 02:07:14;;;;;;;;;;;26.10;2201.60;;;;;;4754658;30;19918;-54
2021/12/21 02:09:40;;;;;;;;;;;26.00;2201.60;;;;;;4754692;30;19910;-57
2021/12/21 02:12:06;;;;;;;;;;;26.10;2201.60;;;;;;4753305;30;19910;-55
2021/12/21 02:14:32;;;;;;;;;;;26.00;2201.60;;;;;;4754751;30;19917;-57
2021/12/21 02:17:43;;;;;;;;;;;26.10;2201.60;;;;;;4754807;30;19910;-55
2021/12/21 02:20:01;;;;;;;;;;;26.10;2201.60;;;;;;4754062;30;19921;-55
2021/12/21 02:22:31;;;;;;;;;;;26.10;2201.60;;;;;;4754153;30;19918;-58
2021/12/21 02:25:20;;;;;;;;;;;26.00;2201.60;;;;;;4754560;30;19915;-55
2021/12/21 02:27:59;;;;;;;;;;;26.00;2201.60;;;;;;4754312;30;19964;-58
2021/12/21 02:30:25;;;;;;;;;;;26.00;2201.60;;;;;;4754461;30;20012;-55
2021/12/21 02:32:51;;;;;;;;;;;26.10;2201.60;;;;;;4754194;30;20013;-58
2021/12/21 02:35:18;;;;;;;;;;;26.00;2201.60;;;;;;4754415;30;19910;-58
2021/12/21 02:37:43;;;;;;;;;;;26.00;2201.60;;;;;;4754153;30;19921;-54
2021/12/21 02:40:09;;;;;;;;;;;26.00;2201.60;;;;;;4754246;30;20288;-54
2021/12/21 02:42:35;;;;;;;;;;;26.00;2201.60;;;;;;4754178;30;19910;-57
2021/12/21 02:45:01;;;;;;;;;;;26.00;2201.60;;;;;;4754213;30;19910;-55
2021/12/21 02:47:26;;;;;;;;;;;25.90;2201.60;;;;;;4738115;30;19918;-55
2021/12/21 02:49:52;;;;;;;;;;;25.90;2201.60;;;;;;4754186;30;19917;-55
2021/12/21 02:52:18;;;;;;;;;;;25.90;2201.60;;;;;;4753784;30;19921;-55
2021/12/21 02:54:43;;;;;;;;;;;25.80;2201.60;;;;;;4754004;30;19918;-55
2021/12/21 02:57:09;;;;;;;;;;;25.80;2201.60;;;;;;4754070;30;20348;-55
2021/12/21 02:59:34;;;;;;;;;;;25.80;2201.60;;;;;;4753782;30;20447;-55
2021/12/21 03:02:00;;;;;;;;;;;25.80;2201.60;;;;;;4754085;30;19952;-57
2021/12/21 03:04:26;;;;;;;;;;;25.80;2201.60;;;;;;4753521;30;19963;-54
2021/12/21 03:14:49;;;;;;;;;;;25.80;2201.60;;;;;;4753758;30;19918;-54
2021/12/21 03:17:15;;;;;;;;;;;25.70;2201.60;;;;;;4753625;30;20008;-55
2021/12/21 03:19:41;;;;;;;;;;;25.80;2201.60;;;;;;4753611;30;19978;-56
2021/12/21 03:22:07;;;;;;;;;;;25.70;2201.60;;;;;;4753373;30;19910;-55
2021/12/21 03:24:33;;;;;;;;;;;25.70;2201.60;;;;;;4752772;30;19918;-57
2021/12/21 03:26:59;;;;;;;;;;;25.60;2201.60;;;;;;4753377;30;19965;-55
2021/12/21 03:29:25;;;;;;;;;;;25.70;2201.60;;;;;;4753369;30;19942;-57
2021/12/21 03:31:50;;;;;;;;;;;25.60;2201.60;;;;;;4753093;30;19910;-58
2021/12/21 03:34:16;;;;;;;;;;;25.60;2201.60;;;;;;4753063;30;20308;-54
2021/12/21 03:36:42;;;;;;;;;;;25.60;2201.60;;;;;;4753170;30;20372;-55
2021/12/21 03:39:15;;;;;;;;;;;25.60;2201.60;;;;;;4753083;30;19910;-55
2021/12/21 03:41:45;;;;;;;;;;;0.90;2201.60;;;;;;4753335;30;19993;-58
2021/12/21 03:44:11;;;;;;;;;;;0.90;2201.60;;;;;;4752769;30;19914;-56
2021/12/21 03:46:44;;;;;;;;;;;0.90;2201.60;;;;;;4752955;30;20334;-55
2021/12/21 03:49:44;;;;;;;;;;;0.90;2201.60;;;;;;4753335;30;19960;-55
2021/12/21 03:51:56;;;;;;;;;;;0.90;2201.60;;;;;;4752788;30;19917;-55
2021/12/21 03:54:22;;;;;;;;;;;0.90;2201.60;;;;;;4752844;30;19910;-54
2021/12/21 03:56:50;;;;;;;;;;;0.80;2201.60;;;;;;4753106;30;19917;-54
2021/12/21 03:59:15;;;;;;;;;;;0.80;2201.60;;;;;;4752876;30;19917;-54
2021/12/21 04:01:41;;;;;;;;;;;0.80;2201.60;;;;;;4753038;30;19914;-57
2021/12/21 04:04:08;;;;;;;;;;;0.70;2201.60;;;;;;4752803;30;19911;-55
2021/12/21 04:06:34;;;;;;;;;;;0.70;2201.60;;;;;;4752891;30;19929;-55
2021/12/21 04:09:00;;;;;;;;;;;0.80;2201.60;;;;;;4752866;30;19910;-54
2021/12/21 04:11:25;;;;;;;;;;;0.70;2201.60;;;;;;4752965;30;19910;-54
2021/12/21 04:13:51;;;;;;;;;;;0.70;2201.60;;;;;;4752234;30;19910;-54
2021/12/21 04:16:17;;;;;;;;;;;0.70;2201.60;;;;;;4752890;30;19949;-54
2021/12/21 04:18:42;;;;;;;;;;;0.70;2201.60;;;;;;4752720;30;20004;-55
2021/12/21 04:21:09;;;;;;;;;;;0.70;2201.60;;;;;;4752992;30;19917;-58
2021/12/21 04:23:35;;;;;;;;;;;0.70;2201.60;;;;;;4752518;30;20352;-54
2021/12/21 04:26:00;;;;;;;;;;;0.70;2201.60;;;;;;4752659;30;19918;-56
2021/12/21 04:28:26;;;;;;;;;;;0.70;2201.60;;;;;;4752586;30;20295;-55
2021/12/21 04:30:52;;;;;;;;;;;0.70;2201.60;;;;;;4752781;30;19910;-54
2021/12/21 04:33:17;;;;;;;;;;;0.60;2201.60;;;;;;4752704;30;20292;-55
2021/12/21 04:35:43;;;;;;;;;;;0.60;2201.60;;;;;;4754512;30;20288;-54
2021/12/21 04:38:20;;;;;;;;;;;0.60;2201.60;;;;;;4756273;30;19910;-57
2021/12/21 04:40:48;;;;;;;;;;;0.60;2201.60;;;;;;4756292;30;19910;-54
2021/12/21 04:43:14;;;;;;;;;;;0.60;2201.60;;;;;;4756197;30;20288;-57
2021/12/21 04:45:40;;;;;;;;;;;0.60;2201.60;;;;;;4755974;30;19910;-55
2021/12/21 04:48:05;;;;;;;;;;;0.60;2201.60;;;;;;4756166;30;19983;-55
2021/12/21 04:50:31;;;;;;;;;;;0.60;2201.60;;;;;;4756145;30;19910;-56
2021/12/21 04:52:57;;;;;;;;;;;0.60;2201.60;;;;;;4756139;30;19911;-54
2021/12/21 04:55:22;;;;;;;;;;;0.60;2201.60;;;;;;4756122;30;19997;-55
2021/12/21 04:57:48;;;;;;;;;;;0.60;2201.60;;;;;;4755844;30;19918;-57
2021/12/21 05:00:14;;;;;;;;;;;0.50;2201.60;;;;;;4756234;30;20005;-55
2021/12/21 05:02:40;;;;;;;;;;;0.50;2201.60;;;;;;4755938;30;19950;-59
2021/12/21 05:05:06;;;;;;;;;;;0.50;2201.60;;;;;;4755904;30;20398;-58
2021/12/21 05:07:34;;;;;;;;;;;0.50;2201.60;;;;;;4755752;30;19925;-55
2021/12/21 05:10:02;;;;;;;;;;;0.50;2201.60;;;;;;4755871;30;19910;-57
2021/12/21 05:12:28;;;;;;;;;;;0.40;2201.60;;;;;;4755762;30;19921;-55
2021/12/21 05:14:54;;;;;;;;;;;0.40;2201.60;;;;;;4755641;30;20350;-54
2021/12/21 05:17:19;;;;;;;;;;;0.50;2201.60;;;;;;4755775;30;19910;-54
2021/12/21 05:19:45;;;;;;;;;;;0.50;2201.60;;;;;;4755522;30;19914;-58
2021/12/21 05:22:11;;;;;;;;;;;0.50;2201.60;;;;;;4755458;30;19936;-59
2021/12/21 05:24:38;;;;;;;;;;;0.50;2201.60;;;;;;4755506;30;19926;-55
2021/12/21 05:27:04;;;;;;;;;;;0.40;2201.60;;;;;;4755536;30;19925;-58
2021/12/21 05:29:31;;;;;;;;;;;0.40;2201.60;;;;;;4755723;30;20342;-55
2021/12/21 05:32:00;;;;;;;;;;;0.30;2201.60;;;;;;4755542;30;19910;-58
2021/12/21 05:34:27;;;;;;;;;;;0.40;2201.60;;;;;;4755265;30;19914;-54
2021/12/21 05:36:53;;;;;;;;;;;0.40;2201.60;;;;;;4755205;30;19946;-55
2021/12/21 05:39:22;;;;;;;;;;;0.20;2201.60;;;;;;4755313;30;19949;-54
2021/12/21 05:41:53;;;;;;;;;;;0.30;2201.60;;;;;;4755429;30;19914;-55
2021/12/21 05:44:20;;;;;;;;;;;0.20;2201.60;;;;;;4755367;30;19917;-55
2021/12/21 05:46:46;;;;;;;;;;;0.30;2201.60;;;;;;4754832;30;19918;-56
2021/12/21 05:49:12;;;;;;;;;;;0.20;2201.60;;;;;;4755150;30;19936;-58
2021/12/21 05:51:37;;;;;;;;;;;0.20;2201.60;;;;;;4755005;30;19910;-55
2021/12/21 05:54:03;;;;;;;;;;;0.20;2201.60;;;;;;4755175;30;19918;-55
2021/12/21 05:56:29;;;;;;;;;;;0.20;2201.60;;;;;;4754841;30;20077;-56
2021/12/21 05:58:54;;;;;;;;;;;0.20;2201.60;;;;;;4754944;30;19982;-54
2021/12/21 06:01:20;;;;;;;;;;;0.20;2201.60;;;;;;4754891;30;20332;-55
2021/12/21 06:03:46;;;;;;;;;;;0.20;2201.60;;;;;;4754852;30;19914;-55
2021/12/21 06:06:14;;;;;;;;;;;0.10;2201.60;;;;;;4754589;30;20026;-55
2021/12/21 06:08:41;;;;;;;;;;;0.20;2201.60;;;;;;4754865;30;19914;-54
2021/12/21 06:11:08;;;;;;;;;;;0.20;2201.60;;;;;;4754901;30;19967;-54
2021/12/21 06:27:00;;;;;;;;;;;0.20;2201.60;;;;;;4754559;30;19922;-54
2021/12/21 06:29:25;;;;;;;;;;;0.10;2201.60;;;;;;4754595;30;19918;-54
2021/12/21 06:31:51;;;;;;;;;;;0.10;2201.60;;;;;;4754307;30;19910;-55
2021/12/21 06:34:17;;;;;;;;;;;0.10;2201.60;;;;;;4754368;30;19948;-55
2021/12/21 06:36:43;;;;;;;;;;;0.20;2201.60;;;;;;4754245;30;20047;-55
2021/12/21 06:39:09;;;;;;;;;;;0.20;2201.60;;;;;;4754313;30;19910;-55
2021/12/21 06:41:35;;;;;;;;;;;0.20;2201.60;;;;;;4753841;30;19910;-55
2021/12/21 06:44:03;;;;;;;;;;;0.10;2201.60;;;;;;4756604;30;19910;-55
2021/12/21 06:51:52;;;;;;;;;;;0.10;2201.60;;;;;;4754424;30;19917;-55
2021/12/21 06:54:18;;;;;;;;;;;0.10;2201.60;;;;;;4753967;30;20371;-54
2021/12/21 06:56:44;;;;;;;;;;;0.00;2201.60;;;;;;4753882;30;20372;-54
2021/12/21 06:59:10;;;;;;;;;;;0.00;2201.60;;;;;;4753427;30;19967;-54
2021/12/21 07:01:38;;;;;;;;;;;0.10;2201.60;;;;;;4753597;30;19989;-55
2021/12/21 07:04:05;;;;;;;;;;;0.10;2201.60;;;;;;4769760;30;19924;-55
2021/12/21 07:06:33;;;;;;;;;;;0.10;2201.60;;;;;;4771362;30;20492;-55
2021/12/21 07:11:42;;;;;;;;;;;0.20;2201.60;;;;;;4771672;30;19909;-56
2021/12/21 07:19:36;;;;;;;;;;;0.30;2201.60;;;;;;4753376;30;19943;-55
2021/12/21 07:22:02;;;;;;;;;;;0.30;2201.60;;;;;;4752992;30;19914;-55
2021/12/21 07:24:28;;;;;;;;;;;0.40;2201.60;;;;;;4753557;30;19922;-54
2021/12/21 07:26:53;;;;;;;;;;;0.50;2201.60;;;;;;4753198;30;19926;-55
2021/12/21 07:29:19;;;;;;;;;;;0.50;2201.60;;;;;;4759396;30;20012;-55
2021/12/21 07:31:45;;;;;;;;;;;0.40;2201.60;;;;;;4761906;30;19914;-57
2021/12/21 07:34:11;;;;;;;;;;;0.50;2201.60;;;;;;4753088;30;19914;-58
2021/12/21 07:36:36;;;;;;;;;;;0.50;2201.60;;;;;;4753308;30;20309;-54
2021/12/21 07:39:05;;;;;;;;;;;0.50;2201.60;;;;;;4753098;30;19910;-58
2021/12/21 07:41:31;;;;;;;;;;;0.60;2201.60;;;;;;4737342;30;19910;-55
2021/12/21 07:43:57;;;;;;;;;;;0.70;2201.60;;;;;;4767074;30;20341;-55
2021/12/21 07:46:22;;;;;;;;;;;0.70;2201.60;;;;;;4770830;30;19917;-56
2021/12/21 07:48:48;;;;;;;;;;;0.80;2201.60;;;;;;4770622;30;19910;-56
2021/12/21 07:51:14;;;;;;;;;;;0.90;2201.60;;;;;;4770860;30;19918;-56
2021/12/21 07:53:40;;;;;;;;;;;0.90;2201.60;;;;;;4759427;30;20384;-62
2021/12/21 07:56:05;;;;;;;;;;;25.60;2201.60;;;;;;4761618;30;19932;-57
2021/12/21 07:58:32;;;;;;;;;;;0.90;2201.60;;;;;;4760572;30;20250;-56
2021/12/21 08:00:58;;;;;;;;;;;25.60;2201.60;;;;;;4759961;30;19921;-56
2021/12/21 08:03:24;;;;;;;;;;;25.80;2201.60;;;;;;4762118;30;19936;-57
2021/12/21 08:05:52;;;;;;;;;;;25.80;2201.60;;;;;;4768928;30;20365;-56
2021/12/21 08:08:21;;;;;;;;;;;25.70;2201.60;;;;;;4769321;30;19914;-62
2021/12/21 08:10:53;;;;;;;;;;;25.70;2201.60;;;;;;4769780;30;19910;-57
2021/12/21 08:13:19;;;;;;;;;;;25.80;2201.60;;;;;;4770766;30;19982;-63
2021/12/21 08:15:45;;;;;;;;;;;25.90;2201.60;;;;;;4770478;30;20421;-58
2021/12/21 08:18:10;;;;;;;;;;;26.00;2201.60;;;;;;4770451;30;19910;-57
2021/12/21 08:20:37;;;;;;;;;;;26.10;2201.60;;;;;;4754643;30;19945;-57
2021/12/21 08:23:03;;;;;;;;;;;26.10;2201.60;;;;;;4768482;30;19922;-57
2021/12/21 08:25:29;;;;;;;;;;;26.20;2201.60;;;;;;4770458;30;19909;-57
2021/12/21 08:27:55;;;;;;;;;;;26.40;2201.60;;;;;;4768857;30;20423;-57
2021/12/21 08:30:21;;;;;;;;;;;51.30;2227.20;;;;;;4768597;30;19913;-56
2021/12/21 08:32:47;;;;;;;;;;;51.50;2227.20;;;;;;4770320;30;19909;-56
2021/12/21 08:35:13;;;;;;;;;;;51.60;2227.20;;;;;;4770480;30;19909;-56
2021/12/21 08:37:39;;;;;;;;;;;51.60;2227.20;;;;;;4770264;30;19917;-60
2021/12/21 08:40:07;;;;;;;;;;;51.20;2227.20;;;;;;4770311;30;20333;-57
2021/12/21 08:42:34;;;;;;;;;;;26.40;2201.60;;;;;;4770023;30;19910;-56
2021/12/21 08:45:01;;;;;;;;;;;26.40;2201.60;;;;;;4770344;30;19910;-57
2021/12/21 08:47:28;;;;;;;;;;;26.40;2201.60;;;;;;4770272;30;19958;-61
2021/12/21 08:49:54;;;;;;;;;;;26.30;2201.60;;;;;;4770130;30;19913;-60
2021/12/21 08:52:19;;;;;;;;;;;26.30;2201.60;;;;;;4770099;30;19910;-60
2021/12/21 08:54:45;;;;;;;;;;;26.30;2201.60;;;;;;4770364;30;19910;-57
2021/12/21 08:57:11;;;;;;;;;;;26.40;2201.60;;;;;;4770220;30;19982;-57
2021/12/21 08:59:36;;;;;;;;;;;51.20;2227.20;;;;;;4769868;30;19917;-54
2021/12/21 09:02:02;;;;;;;;;;;51.20;2227.20;;;;;;4754272;30;19917;-55
2021/12/21 09:04:28;;;;;;;;;;;51.30;2227.20;;;;;;4770243;30;19914;-60
2021/12/21 09:06:54;;;;;;;;;;;51.60;2227.20;;;;;;4770150;30;20280;-55
2021/12/21 09:09:20;;;;;;;;;;;51.80;2227.20;;;;;;4770100;30;20307;-56
2021/12/21 09:11:46;;;;;;;;;;;51.80;2227.20;;;;;;4770027;30;19917;-58
2021/12/21 09:14:12;;;;;;;;;;;52.00;2227.20;;;;;;4769953;30;19917;-59
2021/12/21 09:16:38;;;;;;;;;;;52.10;2227.20;;;;;;4770009;30;19910;-59
2021/12/21 09:19:03;;;;;;;;;;;51.90;2227.20;;;;;;4769738;30;19920;-59
2021/12/21 09:21:30;;;;;;;;;;;51.90;2227.20;;;;;;4772694;30;20290;-58
2021/12/21 09:23:56;;;;;;;;;;;52.00;2227.20;;;;;;4790068;30;19925;-59
2021/12/21 09:26:21;;;;;;;;;;;52.00;2227.20;;;;;;4790885;30;20000;-55
2021/12/21 09:28:47;;;;;;;;;;;52.10;2227.20;;;;;;4790559;30;19914;-56
2021/12/21 09:31:13;;;;;;;;;;;76.80;2227.20;;;;;;4790862;30;20272;-56
2021/12/21 09:33:38;;;;;;;;;;;76.80;2227.20;;;;;;4790797;30;20447;-58
2021/12/21 09:36:04;;;;;;;;;;;76.90;2227.20;;;;;;4790702;30;20279;-57
2021/12/21 09:38:29;;;;;;;;;;;77.00;2227.20;;;;;;4790670;30;19961;-59
2021/12/21 09:40:55;;;;;;;;;;;77.20;2227.20;;;;;;4790303;30;19909;-57
2021/12/21 09:43:22;;;;;;;;;;;77.50;2227.20;;;;;;4790454;30;19920;-56
2021/12/21 09:45:48;;;;;;;;;;;77.60;2176.00;;;;;;4790458;30;19937;-56
2021/12/21 09:48:13;;;;;;;;;;;102.40;2124.80;;;;;;4790457;30;20380;-56
2021/12/21 09:50:39;;;;;;;;;;;102.60;2124.80;;;;;;4790358;30;19961;-57
2021/12/21 09:53:05;;;;;;;;;;;102.60;2073.60;;;;;;4790298;30;19959;-57
2021/12/21 09:55:30;;;;;;;;;;;103.10;1996.80;;;;;;4790224;30;20375;-58
2021/12/21 09:57:56;;;;;;;;;;;179.20;1766.40;;;;;;4790249;30;19913;-57
2021/12/21 10:00:24;;;;;;;;;;;205.60;1510.40;;;;;;4772517;30;19936;-58
2021/12/21 10:02:50;;;;;;;;;;;256.20;1382.40;;;;;;4762261;30;20001;-57
2021/12/21 10:05:18;;;;;;;;;;;307.30;1305.60;;;;;;4763367;30;20359;-58
2021/12/21 10:07:54;;;;;;;;;;;384.20;1075.20;;;;;;4763582;30;19984;-57
2021/12/21 10:10:21;;;;;;;;;;;436.00;972.80;;;;;;4762739;30;19917;-58
2021/12/21 10:12:47;;;;;;;;;;;486.80;819.20;;;;;;4754987;30;19910;-57
2021/12/21 10:15:23;;;;;;;;;;;461.20;870.40;;;;;;4754265;30;20012;-58
2021/12/21 10:17:53;;;;;;;;;;;435.50;921.60;;;;;;4754185;30;20376;-60
2021/12/21 10:20:33;;;;;;;;;;;384.70;972.80;;;;;;4753935;30;20284;-56
2021/12/21 10:22:59;;;;;;;;;;;410.30;947.20;;;;;;4754006;30;19964;-58
2021/12/21 10:25:25;;;;;;;;;;;410.20;947.20;;;;;;4754036;30;19943;-57
2021/12/21 10:27:51;;;;;;;;;;;384.30;1049.60;;;;;;4753919;30;19922;-58
2021/12/21 10:30:17;;;;;;;;;;;358.90;1024.00;;;;;;4753686;30;19983;-57
2021/12/21 10:33:08;;;;;;;;;;;359.00;1024.00;;;;;;4763824;30;19979;-57
2021/12/21 10:35:34;;;;;;;;;;;358.70;1049.60;;;;;;4752182;30;19914;-57
2021/12/21 10:38:03;;;;;;;;;;;410.00;972.80;;;;;;4754047;30;19917;-57
2021/12/21 10:40:29;;;;;;;;;;;410.10;947.20;;;;;;4753481;30;19960;-58
2021/12/21 10:42:59;;;;;;;;;;;358.40;1049.60;;;;;;4754067;30;19949;-57
2021/12/21 10:45:28;;;;;;;;;;;307.40;1177.60;;;;;;4753825;30;19952;-57
2021/12/21 10:47:54;;;;;;;;;;;384.70;972.80;;;;;;4753686;30;20379;-58
2021/12/21 10:50:20;;;;;;;;;;;435.70;896.00;;;;;;4753780;30;19916;-57
2021/12/21 10:52:52;;;;;;;;;;;461.30;819.20;;;;;;4753848;30;19917;-56
2021/12/21 10:55:27;;;;;;;;;;;359.00;972.80;;;;;;4753499;30;19914;-58
2021/12/21 10:58:15;;;;;;;;;;;358.70;1049.60;;;;;;4753575;30;19917;-58
2021/12/21 11:00:47;;;;;;;;;;;333.40;1049.60;;;;;;4753687;30;19950;-57
2021/12/21 11:03:16;;;;;;;;;;;333.40;1100.80;;;;;;4753156;30;19916;-58
2021/12/21 11:05:42;;;;;;;;;;;384.70;972.80;;;;;;4753198;30;20348;-58
2021/12/21 11:08:16;;;;;;;;;;;384.10;947.20;;;;;;4756144;30;19925;-57
2021/12/21 11:10:50;;;;;;;;;;;358.60;998.40;;;;;;4771134;30;19914;-58
2021/12/21 11:13:16;;;;;;;;;;;332.90;1075.20;;;;;;4768913;30;20356;-57
2021/12/21 11:15:44;;;;;;;;;;;281.80;1177.60;;;;;;4769121;30;20012;-57
2021/12/21 11:18:16;;;;;;;;;;;256.30;1228.80;;;;;;4754759;30;20257;-58
2021/12/21 11:20:43;;;;;;;;;;;230.60;1356.80;;;;;;4771013;30;19948;-57
2021/12/21 11:23:10;;;;;;;;;;;205.10;1433.60;;;;;;4771063;30;19929;-57
2021/12/21 11:25:36;;;;;;;;;;;179.80;1510.40;;;;;;4769940;30;20386;-58
2021/12/21 11:28:03;;;;;;;;;;;179.40;1536.00;;;;;;4769997;30;19953;-57
2021/12/21 11:30:29;;;;;;;;;;;154.40;1587.20;;;;;;4768932;30;19987;-57
2021/12/21 11:32:56;;;;;;;;;;;153.90;1612.80;;;;;;4775453;30;19951;-58
2021/12/21 11:37:54;;;;;;;;;;;153.80;1612.80;;;;;;4768768;30;19918;-57
2021/12/21 11:40:24;;;;;;;;;;;153.60;1638.40;;;;;;4770714;30;19910;-58
2021/12/21 11:42:50;;;;;;;;;;;153.60;1664.00;;;;;;4767464;30;19913;-58
2021/12/21 11:45:37;;;;;;;;;;;128.90;1715.20;;;;;;4757545;30;19917;-57
2021/12/21 11:48:09;;;;;;;;;;;128.70;1689.60;;;;;;4753046;30;19924;-57
2021/12/21 11:50:36;;;;;;;;;;;128.70;1689.60;;;;;;4754756;30;19914;-58
2021/12/21 11:53:04;;;;;;;;;;;128.90;1715.20;;;;;;4770392;30;20448;-58
2021/12/21 11:55:30;;;;;;;;;;;128.90;1689.60;;;;;;4770632;30;20371;-57
2021/12/21 11:57:57;;;;;;;;;;;128.50;1689.60;;;;;;4770567;30;19913;-58
2021/12/21 12:00:23;;;;;;;;;;;128.20;1766.40;;;;;;4770687;30;20403;-58
2021/12/21 12:02:50;;;;;;;;;;;128.20;1766.40;;;;;;4770564;30;19913;-58
2021/12/21 12:05:25;;;;;;;;;;;128.40;1715.20;;;;;;4770678;30;19948;-57
2021/12/21 12:08:11;;;;;;;;;;;128.50;1715.20;;;;;;4765336;30;19926;-58
2021/12/21 12:10:38;;;;;;;;;;;128.60;1715.20;;;;;;4762072;30;19910;-58
2021/12/21 12:13:14;;;;;;;;;;;128.70;1715.20;;;;;;4760870;30;19910;-57
2021/12/21 12:15:40;;;;;;;;;;;128.80;1740.80;;;;;;4759531;30;19914;-58
2021/12/21 12:18:06;;;;;;;;;;;153.60;1740.80;;;;;;4764436;30;19914;-57
2021/12/21 12:20:31;;;;;;;;;;;153.80;1715.20;;;;;;4752570;30;19922;-57
2021/12/21 12:23:05;;;;;;;;;;;154.10;1664.00;;;;;;4752463;30;19922;-58
2021/12/21 12:25:30;;;;;;;;;;;179.60;1587.20;;;;;;4751556;30;20326;-57
2021/12/21 12:27:56;;;;;;;;;;;179.40;1561.60;;;;;;4752533;30;19943;-58
2021/12/21 12:30:26;;;;;;;;;;;179.80;1510.40;;;;;;4752721;30;19996;-58
2021/12/21 12:32:55;;;;;;;;;;;180.00;1536.00;;;;;;4752442;30;19967;-58
2021/12/21 12:35:22;;;;;;;;;;;256.00;1305.60;;;;;;4752711;30;19917;-58
2021/12/21 12:37:57;;;;;;;;;;;282.00;1228.80;;;;;;4752522;30;19967;-56
2021/12/21 12:40:25;;;;;;;;;;;307.20;1177.60;;;;;;4752547;30;19936;-56
2021/12/21 12:42:58;;;;;;;;;;;282.40;1152.00;;;;;;4752608;30;20010;-58
2021/12/21 12:45:32;;;;;;;;;;;230.60;1305.60;;;;;;4752973;30;20432;-59
2021/12/21 12:47:58;;;;;;;;;;;205.20;1433.60;;;;;;4752727;30;20446;-58
2021/12/21 12:50:29;;;;;;;;;;;256.60;1228.80;;;;;;4752541;30;19950;-58
2021/12/21 12:53:00;;;;;;;;;;;281.70;1203.20;;;;;;4752440;30;19940;-58
2021/12/21 12:55:48;;;;;;;;;;;333.30;1126.40;;;;;;4752707;30;19916;-58
2021/12/21 12:58:15;;;;;;;;;;;358.70;1049.60;;;;;;4755971;30;20005;-59
2021/12/21 13:00:42;;;;;;;;;;;410.10;921.60;;;;;;4756135;30;19910;-58
2021/12/21 13:03:09;;;;;;;;;;;461.00;844.80;;;;;;4755799;30;20368;-59
2021/12/21 13:05:39;;;;;;;;;;;461.60;793.60;;;;;;4755863;30;20435;-58
2021/12/21 13:08:06;;;;;;;;;;;461.70;793.60;;;;;;4755945;30;19949;-59
2021/12/21 13:10:34;;;;;;;;;;;512.00;716.80;;;;;;4755782;30;19941;-59
2021/12/21 13:13:00;;;;;;;;;;;486.40;768.00;;;;;;4755749;30;20009;-58
2021/12/21 13:15:36;;;;;;;;;;;512.40;716.80;;;;;;4755866;30;20004;-58
2021/12/21 13:18:03;;;;;;;;;;;487.30;716.80;;;;;;4755816;30;19917;-58
2021/12/21 13:20:29;;;;;;;;;;;512.50;691.20;;;;;;4755621;30;20457;-58
2021/12/21 13:22:55;;;;;;;;;;;563.80;691.20;;;;;;4755367;30;19922;-58
2021/12/21 13:25:21;;;;;;;;;;;588.90;640.00;;;;;;4739844;30;19910;-59
2021/12/21 13:27:46;;;;;;;;;;;614.60;614.40;;;;;;4755399;30;20360;-59
2021/12/21 13:30:16;;;;;;;;;;;615.10;588.80;;;;;;4755439;30;19910;-57
2021/12/21 13:32:42;;;;;;;;;;;614.60;614.40;;;;;;4755282;30;19921;-59
2021/12/21 13:35:08;;;;;;;;;;;589.60;665.60;;;;;;4755520;30;19910;-58
2021/12/21 13:37:33;;;;;;;;;;;615.20;588.80;;;;;;4755405;30;19921;-58
2021/12/21 13:40:02;;;;;;;;;;;615.10;614.40;;;;;;4755249;30;19959;-58
2021/12/21 13:42:28;;;;;;;;;;;615.20;588.80;;;;;;4755306;30;19914;-59
2021/12/21 13:44:59;;;;;;;;;;;640.20;537.60;;;;;;4755205;30;19921;-58
2021/12/21 13:47:29;;;;;;;;;;;615.00;563.20;;;;;;4755017;30;20364;-59
2021/12/21 13:50:00;;;;;;;;;;;615.20;563.20;;;;;;4754985;30;19949;-58
2021/12/21 13:52:31;;;;;;;;;;;640.00;537.60;;;;;;4754917;30;19914;-57
2021/12/21 13:54:57;;;;;;;;;;;615.30;563.20;;;;;;4754948;30;19910;-58
2021/12/21 13:57:23;;;;;;;;;;;564.00;640.00;;;;;;4754562;30;19967;-58
2021/12/21 13:59:49;;;;;;;;;;;538.30;665.60;;;;;;4754765;30;19949;-59
2021/12/21 14:02:29;;;;;;;;;;;563.30;665.60;;;;;;4754675;30;20000;-59
2021/12/21 14:05:01;;;;;;;;;;;538.00;640.00;;;;;;4754701;30;20347;-59
2021/12/21 14:07:27;;;;;;;;;;;461.60;716.80;;;;;;4754688;30;19968;-57
2021/12/21 14:10:07;;;;;;;;;;;359.10;870.40;;;;;;4754900;30;19961;-59
2021/12/21 14:12:33;;;;;;;;;;;358.50;947.20;;;;;;4768614;30;20012;-58
2021/12/21 14:14:58;;;;;;;;;;;409.70;844.80;;;;;;4779278;30;19996;-57
2021/12/21 14:17:30;;;;;;;;;;;435.70;742.40;;;;;;4776279;30;19913;-58
2021/12/21 14:19:59;;;;;;;;;;;384.00;844.80;;;;;;4771995;30;20288;-57
2021/12/21 14:22:25;;;;;;;;;;;333.60;921.60;;;;;;4771647;30;19918;-58
2021/12/21 14:24:51;;;;;;;;;;;359.00;870.40;;;;;;4771830;30;20004;-57
2021/12/21 14:27:18;;;;;;;;;;;333.00;972.80;;;;;;4771252;30;19919;-58
2021/12/21 14:29:44;;;;;;;;;;;307.20;998.40;;;;;;4771833;30;20013;-58
2021/12/21 14:34:44;;;;;;;;;;;205.20;1254.40;;;;;;4772108;30;20356;-59
2021/12/21 14:37:11;;;;;;;;;;;179.70;1331.20;;;;;;4771725;30;19960;-58
2021/12/21 14:39:36;;;;;;;;;;;154.30;1382.40;;;;;;4771277;30;20423;-58
2021/12/21 14:42:07;;;;;;;;;;;153.80;1459.20;;;;;;4771837;30;20000;-58
2021/12/21 14:44:41;;;;;;;;;;;128.90;1510.40;;;;;;4771658;30;19938;-59
2021/12/21 14:47:09;;;;;;;;;;;128.50;1561.60;;;;;;4771561;30;19925;-58
2021/12/21 14:49:36;;;;;;;;;;;128.20;1587.20;;;;;;4771791;30;19953;-58
2021/12/21 14:52:10;;;;;;;;;;;128.00;1638.40;;;;;;4771749;30;19944;-58
2021/12/21 14:54:47;;;;;;;;;;;103.30;1612.80;;;;;;4771472;30;19909;-58
2021/12/21 14:57:13;;;;;;;;;;;103.10;1664.00;;;;;;4771712;30;19909;-57
2021/12/21 14:59:39;;;;;;;;;;;102.90;1664.00;;;;;;4771588;30;20386;-58
2021/12/21 15:02:24;;;;;;;;;;;102.90;1689.60;;;;;;4770842;30;19914;-57
2021/12/21 15:04:54;;;;;;;;;;;102.70;1740.80;;;;;;4768177;30;20333;-58